sensor_id;sensor_type;location;lat;lon;timestamp;P1;durP1;ratioP1;P2;durP2;ratioP2
58238;SDS011;44037;55.638;37.356;2023-07-31T00:01:46;4.72;;;3.78;;
58238;SDS011;44037;55.638;37.356;2023-07-31T00:04:14;5.75;;;3.97;;
58238;SDS011;44037;55.638;37.356;2023-07-31T00:06:41;9.88;;;4.35;;
58238;SDS011;44037;55.638;37.356;2023-07-31T00:09:08;6.25;;;3.72;;
58238;SDS011;44037;55.638;37.356;2023-07-31T00:11:36;6.45;;;3.92;;
58238;SDS011;44037;55.638;37.356;2023-07-31T00:14:03;6.13;;;4.30;;
58238;SDS011;44037;55.638;37.356;2023-07-31T00:16:30;7.03;;;4.05;;
58238;SDS011;44037;55.638;37.356;2023-07-31T00:18:59;6.65;;;3.97;;
58238;SDS011;44037;55.638;37.356;2023-07-31T00:21:26;10.07;;;4.13;;
58238;SDS011;44037;55.638;37.356;2023-07-31T00:23:53;7.43;;;3.90;;
58238;SDS011;44037;55.638;37.356;2023-07-31T00:26:20;7.72;;;3.97;;
58238;SDS011;44037;55.638;37.356;2023-07-31T00:28:48;8.27;;;4.05;;
58238;SDS011;44037;55.638;37.356;2023-07-31T00:31:15;6.40;;;4.22;;
58238;SDS011;44037;55.638;37.356;2023-07-31T00:33:42;7.10;;;4.60;;
58238;SDS011;44037;55.638;37.356;2023-07-31T00:36:11;6.32;;;4.70;;
58238;SDS011;44037;55.638;37.356;2023-07-31T00:38:38;7.63;;;4.68;;
58238;SDS011;44037;55.638;37.356;2023-07-31T00:41:05;7.97;;;4.78;;
58238;SDS011;44037;55.638;37.356;2023-07-31T00:43:32;6.72;;;5.03;;
58238;SDS011;44037;55.638;37.356;2023-07-31T00:45:59;6.70;;;4.47;;
58238;SDS011;44037;55.638;37.356;2023-07-31T00:48:27;7.07;;;4.47;;
58238;SDS011;44037;55.638;37.356;2023-07-31T00:50:54;6.60;;;4.55;;
58238;SDS011;44037;55.638;37.356;2023-07-31T00:53:23;8.90;;;5.00;;
58238;SDS011;44037;55.638;37.356;2023-07-31T00:55:51;6.75;;;4.75;;
58238;SDS011;44037;55.638;37.356;2023-07-31T00:58:19;7.50;;;4.68;;
58238;SDS011;44037;55.638;37.356;2023-07-31T01:00:46;6.05;;;4.45;;
58238;SDS011;44037;55.638;37.356;2023-07-31T01:03:14;5.35;;;4.47;;
58238;SDS011;44037;55.638;37.356;2023-07-31T01:05:43;6.30;;;4.40;;
58238;SDS011;44037;55.638;37.356;2023-07-31T01:08:18;5.45;;;3.95;;
58238;SDS011;44037;55.638;37.356;2023-07-31T01:11:01;8.80;;;4.82;;
58238;SDS011;44037;55.638;37.356;2023-07-31T01:13:34;6.90;;;4.22;;
58238;SDS011;44037;55.638;37.356;2023-07-31T01:16:01;9.43;;;5.05;;
58238;SDS011;44037;55.638;37.356;2023-07-31T01:18:29;7.50;;;4.93;;
58238;SDS011;44037;55.638;37.356;2023-07-31T01:20:57;8.32;;;4.88;;
58238;SDS011;44037;55.638;37.356;2023-07-31T01:23:49;6.35;;;4.20;;
58238;SDS011;44037;55.638;37.356;2023-07-31T01:26:30;7.88;;;4.38;;
58238;SDS011;44037;55.638;37.356;2023-07-31T01:29:03;8.75;;;4.97;;
58238;SDS011;44037;55.638;37.356;2023-07-31T01:31:36;8.60;;;4.80;;
58238;SDS011;44037;55.638;37.356;2023-07-31T01:34:06;8.43;;;4.38;;
58238;SDS011;44037;55.638;37.356;2023-07-31T01:36:36;9.40;;;4.47;;
58238;SDS011;44037;55.638;37.356;2023-07-31T01:39:03;5.63;;;4.40;;
58238;SDS011;44037;55.638;37.356;2023-07-31T01:41:32;7.68;;;4.05;;
58238;SDS011;44037;55.638;37.356;2023-07-31T01:43:59;7.50;;;4.13;;
58238;SDS011;44037;55.638;37.356;2023-07-31T01:46:26;6.20;;;3.90;;
58238;SDS011;44037;55.638;37.356;2023-07-31T01:48:53;7.57;;;4.57;;
58238;SDS011;44037;55.638;37.356;2023-07-31T01:51:21;6.70;;;4.20;;
58238;SDS011;44037;55.638;37.356;2023-07-31T01:53:48;7.28;;;4.40;;
58238;SDS011;44037;55.638;37.356;2023-07-31T01:56:15;6.35;;;4.20;;
58238;SDS011;44037;55.638;37.356;2023-07-31T01:58:44;8.95;;;4.70;;
58238;SDS011;44037;55.638;37.356;2023-07-31T02:01:11;5.95;;;4.05;;
58238;SDS011;44037;55.638;37.356;2023-07-31T02:03:38;7.68;;;4.22;;
58238;SDS011;44037;55.638;37.356;2023-07-31T02:06:06;5.95;;;3.88;;
58238;SDS011;44037;55.638;37.356;2023-07-31T02:08:33;6.47;;;4.28;;
58238;SDS011;44037;55.638;37.356;2023-07-31T02:11:00;9.60;;;4.85;;
58238;SDS011;44037;55.638;37.356;2023-07-31T02:13:27;5.50;;;3.67;;
58238;SDS011;44037;55.638;37.356;2023-07-31T02:15:56;6.60;;;4.15;;
58238;SDS011;44037;55.638;37.356;2023-07-31T02:18:23;9.25;;;4.65;;
58238;SDS011;44037;55.638;37.356;2023-07-31T02:20:50;7.25;;;4.65;;
58238;SDS011;44037;55.638;37.356;2023-07-31T02:23:18;5.72;;;3.80;;
58238;SDS011;44037;55.638;37.356;2023-07-31T02:25:45;8.02;;;4.00;;
58238;SDS011;44037;55.638;37.356;2023-07-31T02:28:12;9.38;;;4.07;;
58238;SDS011;44037;55.638;37.356;2023-07-31T02:30:39;6.93;;;4.07;;
58238;SDS011;44037;55.638;37.356;2023-07-31T02:33:08;6.57;;;4.25;;
58238;SDS011;44037;55.638;37.356;2023-07-31T02:35:35;7.40;;;4.40;;
58238;SDS011;44037;55.638;37.356;2023-07-31T02:38:02;7.28;;;4.57;;
58238;SDS011;44037;55.638;37.356;2023-07-31T02:40:29;9.10;;;4.50;;
58238;SDS011;44037;55.638;37.356;2023-07-31T02:42:56;7.47;;;3.88;;
58238;SDS011;44037;55.638;37.356;2023-07-31T02:45:23;6.85;;;4.10;;
58238;SDS011;44037;55.638;37.356;2023-07-31T02:47:50;18.35;;;4.70;;
58238;SDS011;44037;55.638;37.356;2023-07-31T02:50:19;9.00;;;4.57;;
58238;SDS011;44037;55.638;37.356;2023-07-31T02:55:37;5.85;;;4.22;;
58238;SDS011;44037;55.638;37.356;2023-07-31T02:58:05;8.15;;;4.60;;
58238;SDS011;44037;55.638;37.356;2023-07-31T03:00:34;5.55;;;4.10;;
58238;SDS011;44037;55.638;37.356;2023-07-31T03:03:02;4.50;;;3.65;;
58238;SDS011;44037;55.638;37.356;2023-07-31T03:05:30;7.10;;;3.97;;
58238;SDS011;44037;55.638;37.356;2023-07-31T03:07:57;5.20;;;3.13;;
58238;SDS011;44037;55.638;37.356;2023-07-31T03:10:27;6.53;;;3.72;;
58238;SDS011;44037;55.638;37.356;2023-07-31T03:12:55;5.38;;;3.83;;
58238;SDS011;44037;55.638;37.356;2023-07-31T03:15:22;7.68;;;3.50;;
58238;SDS011;44037;55.638;37.356;2023-07-31T03:17:49;6.40;;;4.15;;
58238;SDS011;44037;55.638;37.356;2023-07-31T03:20:16;5.05;;;3.58;;
58238;SDS011;44037;55.638;37.356;2023-07-31T03:22:45;6.13;;;3.63;;
58238;SDS011;44037;55.638;37.356;2023-07-31T03:25:12;4.35;;;2.90;;
58238;SDS011;44037;55.638;37.356;2023-07-31T03:27:40;5.57;;;4.05;;
58238;SDS011;44037;55.638;37.356;2023-07-31T03:30:07;9.95;;;4.07;;
58238;SDS011;44037;55.638;37.356;2023-07-31T03:32:35;5.88;;;3.58;;
58238;SDS011;44037;55.638;37.356;2023-07-31T03:35:02;8.60;;;4.28;;
58238;SDS011;44037;55.638;37.356;2023-07-31T03:37:30;7.15;;;3.65;;
58238;SDS011;44037;55.638;37.356;2023-07-31T03:39:59;6.78;;;4.03;;
58238;SDS011;44037;55.638;37.356;2023-07-31T03:42:29;5.38;;;3.38;;
58238;SDS011;44037;55.638;37.356;2023-07-31T03:44:56;5.28;;;3.65;;
58238;SDS011;44037;55.638;37.356;2023-07-31T03:47:23;7.38;;;3.80;;
58238;SDS011;44037;55.638;37.356;2023-07-31T03:49:50;6.10;;;3.75;;
58238;SDS011;44037;55.638;37.356;2023-07-31T03:52:17;5.45;;;3.55;;
58238;SDS011;44037;55.638;37.356;2023-07-31T03:54:44;5.35;;;3.70;;
58238;SDS011;44037;55.638;37.356;2023-07-31T03:57:13;6.63;;;4.07;;
58238;SDS011;44037;55.638;37.356;2023-07-31T03:59:40;6.22;;;4.38;;
58238;SDS011;44037;55.638;37.356;2023-07-31T04:02:07;4.70;;;3.15;;
58238;SDS011;44037;55.638;37.356;2023-07-31T04:04:35;6.25;;;3.40;;
58238;SDS011;44037;55.638;37.356;2023-07-31T04:07:02;4.97;;;3.42;;
58238;SDS011;44037;55.638;37.356;2023-07-31T04:09:30;6.53;;;3.50;;
58238;SDS011;44037;55.638;37.356;2023-07-31T04:11:57;5.53;;;3.20;;
58238;SDS011;44037;55.638;37.356;2023-07-31T04:14:25;6.78;;;4.25;;
58238;SDS011;44037;55.638;37.356;2023-07-31T04:16:53;7.75;;;4.18;;
58238;SDS011;44037;55.638;37.356;2023-07-31T04:19:20;5.45;;;3.78;;
58238;SDS011;44037;55.638;37.356;2023-07-31T04:21:47;6.07;;;3.92;;
58238;SDS011;44037;55.638;37.356;2023-07-31T04:24:14;7.18;;;4.50;;
58238;SDS011;44037;55.638;37.356;2023-07-31T04:26:47;6.78;;;3.70;;
58238;SDS011;44037;55.638;37.356;2023-07-31T04:29:14;5.60;;;3.17;;
58238;SDS011;44037;55.638;37.356;2023-07-31T04:31:43;5.22;;;3.88;;
58238;SDS011;44037;55.638;37.356;2023-07-31T04:34:10;4.82;;;3.10;;
58238;SDS011;44037;55.638;37.356;2023-07-31T04:36:38;5.80;;;3.40;;
58238;SDS011;44037;55.638;37.356;2023-07-31T04:39:05;4.28;;;2.60;;
58238;SDS011;44037;55.638;37.356;2023-07-31T04:41:32;6.10;;;2.78;;
58238;SDS011;44037;55.638;37.356;2023-07-31T04:43:59;5.05;;;3.10;;
58238;SDS011;44037;55.638;37.356;2023-07-31T04:46:29;5.70;;;3.40;;
58238;SDS011;44037;55.638;37.356;2023-07-31T04:48:57;5.22;;;2.75;;
58238;SDS011;44037;55.638;37.356;2023-07-31T04:51:24;5.78;;;3.05;;
58238;SDS011;44037;55.638;37.356;2023-07-31T04:53:52;5.13;;;3.08;;
58238;SDS011;44037;55.638;37.356;2023-07-31T04:56:19;3.72;;;2.95;;
58238;SDS011;44037;55.638;37.356;2023-07-31T04:58:46;6.13;;;3.20;;
58238;SDS011;44037;55.638;37.356;2023-07-31T05:01:13;8.05;;;3.28;;
58238;SDS011;44037;55.638;37.356;2023-07-31T05:03:40;5.47;;;2.92;;
58238;SDS011;44037;55.638;37.356;2023-07-31T05:06:09;5.38;;;3.10;;
58238;SDS011;44037;55.638;37.356;2023-07-31T05:08:37;4.18;;;2.80;;
58238;SDS011;44037;55.638;37.356;2023-07-31T05:11:04;5.00;;;3.15;;
58238;SDS011;44037;55.638;37.356;2023-07-31T05:13:31;4.53;;;3.13;;
58238;SDS011;44037;55.638;37.356;2023-07-31T05:15:59;6.30;;;2.75;;
58238;SDS011;44037;55.638;37.356;2023-07-31T05:18:27;8.10;;;2.58;;
58238;SDS011;44037;55.638;37.356;2023-07-31T05:20:54;8.45;;;4.72;;
58238;SDS011;44037;55.638;37.356;2023-07-31T05:23:22;5.57;;;2.95;;
58238;SDS011;44037;55.638;37.356;2023-07-31T05:25:49;6.00;;;2.33;;
58238;SDS011;44037;55.638;37.356;2023-07-31T05:28:16;3.38;;;2.50;;
58238;SDS011;44037;55.638;37.356;2023-07-31T05:30:44;6.57;;;2.38;;
58238;SDS011;44037;55.638;37.356;2023-07-31T05:33:11;9.63;;;4.07;;
58238;SDS011;44037;55.638;37.356;2023-07-31T05:35:38;5.93;;;3.05;;
58238;SDS011;44037;55.638;37.356;2023-07-31T05:38:05;4.28;;;2.40;;
58238;SDS011;44037;55.638;37.356;2023-07-31T05:40:33;8.60;;;2.45;;
58238;SDS011;44037;55.638;37.356;2023-07-31T05:43:00;6.53;;;3.05;;
58238;SDS011;44037;55.638;37.356;2023-07-31T05:45:28;3.25;;;2.20;;
58238;SDS011;44037;55.638;37.356;2023-07-31T05:47:55;2.88;;;1.70;;
58238;SDS011;44037;55.638;37.356;2023-07-31T05:50:22;4.32;;;2.20;;
58238;SDS011;44037;55.638;37.356;2023-07-31T05:52:49;3.33;;;2.33;;
58238;SDS011;44037;55.638;37.356;2023-07-31T05:55:16;4.00;;;2.50;;
58238;SDS011;44037;55.638;37.356;2023-07-31T05:57:46;2.67;;;1.88;;
58238;SDS011;44037;55.638;37.356;2023-07-31T06:00:13;4.93;;;1.75;;
58238;SDS011;44037;55.638;37.356;2023-07-31T06:02:41;6.93;;;3.60;;
58238;SDS011;44037;55.638;37.356;2023-07-31T06:05:08;3.25;;;2.22;;
58238;SDS011;44037;55.638;37.356;2023-07-31T06:07:35;7.93;;;2.30;;
58238;SDS011;44037;55.638;37.356;2023-07-31T06:10:03;8.15;;;2.72;;
58238;SDS011;44037;55.638;37.356;2023-07-31T06:12:32;3.20;;;2.05;;
58238;SDS011;44037;55.638;37.356;2023-07-31T06:15:01;4.88;;;2.38;;
58238;SDS011;44037;55.638;37.356;2023-07-31T06:17:32;4.45;;;1.90;;
58238;SDS011;44037;55.638;37.356;2023-07-31T06:19:59;2.70;;;1.88;;
58238;SDS011;44037;55.638;37.356;2023-07-31T06:22:26;5.18;;;1.50;;
58238;SDS011;44037;55.638;37.356;2023-07-31T06:24:53;2.63;;;1.25;;
58238;SDS011;44037;55.638;37.356;2023-07-31T06:27:20;2.97;;;1.85;;
58238;SDS011;44037;55.638;37.356;2023-07-31T06:29:47;3.25;;;1.38;;
58238;SDS011;44037;55.638;37.356;2023-07-31T06:32:15;3.28;;;1.70;;
58238;SDS011;44037;55.638;37.356;2023-07-31T06:34:43;6.65;;;2.50;;
58238;SDS011;44037;55.638;37.356;2023-07-31T06:37:10;7.07;;;1.67;;
58238;SDS011;44037;55.638;37.356;2023-07-31T06:39:37;3.03;;;1.55;;
58238;SDS011;44037;55.638;37.356;2023-07-31T06:42:04;9.18;;;1.77;;
58238;SDS011;44037;55.638;37.356;2023-07-31T06:44:31;2.33;;;1.65;;
58238;SDS011;44037;55.638;37.356;2023-07-31T06:46:59;2.40;;;1.80;;
58238;SDS011;44037;55.638;37.356;2023-07-31T06:49:27;3.30;;;1.75;;
58238;SDS011;44037;55.638;37.356;2023-07-31T06:51:54;1.88;;;1.42;;
58238;SDS011;44037;55.638;37.356;2023-07-31T06:54:21;3.05;;;1.50;;
58238;SDS011;44037;55.638;37.356;2023-07-31T06:56:49;2.30;;;1.50;;
58238;SDS011;44037;55.638;37.356;2023-07-31T06:59:16;1.58;;;1.27;;
58238;SDS011;44037;55.638;37.356;2023-07-31T07:01:43;3.35;;;1.35;;
58238;SDS011;44037;55.638;37.356;2023-07-31T07:04:10;3.13;;;1.52;;
58238;SDS011;44037;55.638;37.356;2023-07-31T07:06:38;2.45;;;1.83;;
58238;SDS011;44037;55.638;37.356;2023-07-31T07:09:05;1.52;;;1.02;;
58238;SDS011;44037;55.638;37.356;2023-07-31T07:11:33;1.52;;;1.00;;
58238;SDS011;44037;55.638;37.356;2023-07-31T07:14:00;2.45;;;1.17;;
58238;SDS011;44037;55.638;37.356;2023-07-31T07:16:28;4.78;;;3.13;;
58238;SDS011;44037;55.638;37.356;2023-07-31T07:18:55;2.20;;;1.00;;
58238;SDS011;44037;55.638;37.356;2023-07-31T07:21:22;3.25;;;1.13;;
58238;SDS011;44037;55.638;37.356;2023-07-31T07:23:51;3.53;;;1.60;;
58238;SDS011;44037;55.638;37.356;2023-07-31T07:26:18;4.00;;;1.40;;
58238;SDS011;44037;55.638;37.356;2023-07-31T07:28:45;1.73;;;1.40;;
58238;SDS011;44037;55.638;37.356;2023-07-31T07:31:12;2.13;;;1.38;;
58238;SDS011;44037;55.638;37.356;2023-07-31T07:33:39;3.20;;;1.30;;
58238;SDS011;44037;55.638;37.356;2023-07-31T07:36:06;1.77;;;1.10;;
58238;SDS011;44037;55.638;37.356;2023-07-31T07:38:35;2.15;;;1.38;;
58238;SDS011;44037;55.638;37.356;2023-07-31T07:41:05;5.05;;;1.30;;
58238;SDS011;44037;55.638;37.356;2023-07-31T07:43:33;2.70;;;1.30;;
58238;SDS011;44037;55.638;37.356;2023-07-31T07:46:00;2.53;;;1.40;;
58238;SDS011;44037;55.638;37.356;2023-07-31T07:48:27;2.55;;;1.30;;
58238;SDS011;44037;55.638;37.356;2023-07-31T07:50:54;2.47;;;1.75;;
58238;SDS011;44037;55.638;37.356;2023-07-31T07:53:21;1.80;;;1.20;;
58238;SDS011;44037;55.638;37.356;2023-07-31T07:55:48;2.92;;;1.52;;
58238;SDS011;44037;55.638;37.356;2023-07-31T07:58:17;1.75;;;1.20;;
58238;SDS011;44037;55.638;37.356;2023-07-31T08:00:48;2.95;;;1.40;;
58238;SDS011;44037;55.638;37.356;2023-07-31T08:03:15;2.45;;;1.38;;
58238;SDS011;44037;55.638;37.356;2023-07-31T08:05:43;3.28;;;1.80;;
58238;SDS011;44037;55.638;37.356;2023-07-31T08:08:13;2.67;;;1.40;;
58238;SDS011;44037;55.638;37.356;2023-07-31T08:10:41;3.65;;;1.65;;
58238;SDS011;44037;55.638;37.356;2023-07-31T08:13:09;1.70;;;1.48;;
58238;SDS011;44037;55.638;37.356;2023-07-31T08:15:37;5.32;;;2.22;;
58238;SDS011;44037;55.638;37.356;2023-07-31T08:18:07;3.78;;;2.08;;
58238;SDS011;44037;55.638;37.356;2023-07-31T08:20:36;5.53;;;2.05;;
58238;SDS011;44037;55.638;37.356;2023-07-31T08:23:06;3.05;;;1.50;;
58238;SDS011;44037;55.638;37.356;2023-07-31T08:25:34;2.72;;;1.40;;
58238;SDS011;44037;55.638;37.356;2023-07-31T08:28:01;2.22;;;1.52;;
58238;SDS011;44037;55.638;37.356;2023-07-31T08:30:28;3.70;;;1.85;;
58238;SDS011;44037;55.638;37.356;2023-07-31T08:32:58;2.28;;;1.30;;
58238;SDS011;44037;55.638;37.356;2023-07-31T08:35:28;2.90;;;1.48;;
58238;SDS011;44037;55.638;37.356;2023-07-31T08:37:55;2.75;;;1.20;;
58238;SDS011;44037;55.638;37.356;2023-07-31T08:40:25;2.28;;;1.48;;
58238;SDS011;44037;55.638;37.356;2023-07-31T08:42:54;2.85;;;1.55;;
58238;SDS011;44037;55.638;37.356;2023-07-31T08:45:41;3.10;;;1.75;;
58238;SDS011;44037;55.638;37.356;2023-07-31T08:48:10;3.47;;;1.73;;
58238;SDS011;44037;55.638;37.356;2023-07-31T08:50:38;3.20;;;1.80;;
58238;SDS011;44037;55.638;37.356;2023-07-31T08:53:05;4.32;;;1.67;;
58238;SDS011;44037;55.638;37.356;2023-07-31T08:55:32;3.65;;;1.73;;
58238;SDS011;44037;55.638;37.356;2023-07-31T08:58:00;2.17;;;1.65;;
58238;SDS011;44037;55.638;37.356;2023-07-31T09:00:30;2.60;;;1.65;;
58238;SDS011;44037;55.638;37.356;2023-07-31T09:03:00;3.13;;;1.73;;
58238;SDS011;44037;55.638;37.356;2023-07-31T09:05:31;3.03;;;1.52;;
58238;SDS011;44037;55.638;37.356;2023-07-31T09:07:58;2.97;;;1.10;;
58238;SDS011;44037;55.638;37.356;2023-07-31T09:10:28;3.58;;;1.50;;
58238;SDS011;44037;55.638;37.356;2023-07-31T09:12:55;4.82;;;1.80;;
58238;SDS011;44037;55.638;37.356;2023-07-31T09:15:24;2.10;;;1.45;;
58238;SDS011;44037;55.638;37.356;2023-07-31T09:17:58;4.90;;;1.85;;
58238;SDS011;44037;55.638;37.356;2023-07-31T09:20:26;2.37;;;1.60;;
58238;SDS011;44037;55.638;37.356;2023-07-31T09:22:55;2.35;;;1.70;;
58238;SDS011;44037;55.638;37.356;2023-07-31T09:25:31;3.40;;;1.70;;
58238;SDS011;44037;55.638;37.356;2023-07-31T09:27:59;2.80;;;1.42;;
58238;SDS011;44037;55.638;37.356;2023-07-31T09:30:27;1.80;;;1.65;;
58238;SDS011;44037;55.638;37.356;2023-07-31T09:32:59;3.47;;;1.90;;
58238;SDS011;44037;55.638;37.356;2023-07-31T09:35:28;3.22;;;1.85;;
58238;SDS011;44037;55.638;37.356;2023-07-31T09:37:59;3.15;;;1.73;;
58238;SDS011;44037;55.638;37.356;2023-07-31T09:40:27;2.40;;;1.58;;
58238;SDS011;44037;55.638;37.356;2023-07-31T09:42:56;3.85;;;1.80;;
58238;SDS011;44037;55.638;37.356;2023-07-31T09:45:24;2.30;;;1.50;;
58238;SDS011;44037;55.638;37.356;2023-07-31T09:47:52;3.08;;;1.65;;
58238;SDS011;44037;55.638;37.356;2023-07-31T09:50:20;2.45;;;1.50;;
58238;SDS011;44037;55.638;37.356;2023-07-31T09:52:48;4.45;;;2.00;;
58238;SDS011;44037;55.638;37.356;2023-07-31T09:55:17;3.35;;;1.67;;
58238;SDS011;44037;55.638;37.356;2023-07-31T09:57:46;3.10;;;2.10;;
58238;SDS011;44037;55.638;37.356;2023-07-31T10:00:15;2.05;;;1.40;;
58238;SDS011;44037;55.638;37.356;2023-07-31T10:02:44;2.97;;;2.00;;
58238;SDS011;44037;55.638;37.356;2023-07-31T10:05:13;2.17;;;1.70;;
58238;SDS011;44037;55.638;37.356;2023-07-31T10:07:42;3.17;;;1.67;;
58238;SDS011;44037;55.638;37.356;2023-07-31T10:10:12;2.70;;;2.22;;
58238;SDS011;44037;55.638;37.356;2023-07-31T10:12:43;2.10;;;1.60;;
58238;SDS011;44037;55.638;37.356;2023-07-31T10:15:12;3.60;;;1.63;;
58238;SDS011;44037;55.638;37.356;2023-07-31T10:17:41;2.53;;;1.75;;
58238;SDS011;44037;55.638;37.356;2023-07-31T10:20:09;2.20;;;1.60;;
58238;SDS011;44037;55.638;37.356;2023-07-31T10:22:37;2.33;;;1.80;;
58238;SDS011;44037;55.638;37.356;2023-07-31T10:25:06;3.40;;;1.63;;
58238;SDS011;44037;55.638;37.356;2023-07-31T10:27:35;3.75;;;1.73;;
58238;SDS011;44037;55.638;37.356;2023-07-31T10:30:08;2.67;;;1.88;;
58238;SDS011;44037;55.638;37.356;2023-07-31T10:32:38;1.60;;;1.50;;
58238;SDS011;44037;55.638;37.356;2023-07-31T10:35:07;3.90;;;2.17;;
58238;SDS011;44037;55.638;37.356;2023-07-31T10:37:36;4.00;;;1.80;;
58238;SDS011;44037;55.638;37.356;2023-07-31T10:40:11;1.88;;;1.50;;
58238;SDS011;44037;55.638;37.356;2023-07-31T10:42:45;2.72;;;1.80;;
58238;SDS011;44037;55.638;37.356;2023-07-31T10:45:23;4.10;;;1.75;;
58238;SDS011;44037;55.638;37.356;2023-07-31T10:47:58;2.83;;;1.85;;
58238;SDS011;44037;55.638;37.356;2023-07-31T10:50:28;1.93;;;1.60;;
58238;SDS011;44037;55.638;37.356;2023-07-31T10:53:00;4.07;;;1.73;;
58238;SDS011;44037;55.638;37.356;2023-07-31T10:55:28;2.60;;;1.90;;
58238;SDS011;44037;55.638;37.356;2023-07-31T10:57:58;1.90;;;1.70;;
58238;SDS011;44037;55.638;37.356;2023-07-31T11:00:36;2.78;;;1.83;;
58238;SDS011;44037;55.638;37.356;2023-07-31T11:03:04;3.47;;;2.00;;
58238;SDS011;44037;55.638;37.356;2023-07-31T11:08:29;3.45;;;1.88;;
58238;SDS011;44037;55.638;37.356;2023-07-31T11:11:06;4.25;;;1.98;;
58238;SDS011;44037;55.638;37.356;2023-07-31T11:13:39;4.03;;;2.05;;
58238;SDS011;44037;55.638;37.356;2023-07-31T11:16:09;3.58;;;1.80;;
58238;SDS011;44037;55.638;37.356;2023-07-31T11:18:38;4.35;;;2.10;;
58238;SDS011;44037;55.638;37.356;2023-07-31T11:21:08;3.58;;;2.10;;
58238;SDS011;44037;55.638;37.356;2023-07-31T11:23:38;3.17;;;2.05;;
58238;SDS011;44037;55.638;37.356;2023-07-31T11:26:05;4.07;;;2.08;;
58238;SDS011;44037;55.638;37.356;2023-07-31T11:28:33;3.72;;;2.45;;
58238;SDS011;44037;55.638;37.356;2023-07-31T11:31:04;5.38;;;2.08;;
58238;SDS011;44037;55.638;37.356;2023-07-31T11:33:33;2.80;;;1.77;;
58238;SDS011;44037;55.638;37.356;2023-07-31T11:36:00;3.30;;;2.30;;
58238;SDS011;44037;55.638;37.356;2023-07-31T11:38:28;4.50;;;1.95;;
58238;SDS011;44037;55.638;37.356;2023-07-31T11:40:56;4.18;;;1.90;;
58238;SDS011;44037;55.638;37.356;2023-07-31T11:43:25;2.20;;;1.88;;
58238;SDS011;44037;55.638;37.356;2023-07-31T11:45:53;2.97;;;1.85;;
58238;SDS011;44037;55.638;37.356;2023-07-31T11:48:22;3.22;;;1.98;;
58238;SDS011;44037;55.638;37.356;2023-07-31T11:50:53;4.20;;;2.50;;
58238;SDS011;44037;55.638;37.356;2023-07-31T11:53:25;5.38;;;1.90;;
58238;SDS011;44037;55.638;37.356;2023-07-31T11:55:57;3.13;;;1.63;;
58238;SDS011;44037;55.638;37.356;2023-07-31T11:58:25;7.93;;;1.92;;
58238;SDS011;44037;55.638;37.356;2023-07-31T12:00:53;3.72;;;1.90;;
58238;SDS011;44037;55.638;37.356;2023-07-31T12:03:21;4.15;;;2.05;;
58238;SDS011;44037;55.638;37.356;2023-07-31T12:05:49;3.38;;;2.13;;
58238;SDS011;44037;55.638;37.356;2023-07-31T12:08:18;3.05;;;1.83;;
58238;SDS011;44037;55.638;37.356;2023-07-31T12:10:49;3.17;;;1.98;;
58238;SDS011;44037;55.638;37.356;2023-07-31T12:13:20;2.55;;;1.90;;
58238;SDS011;44037;55.638;37.356;2023-07-31T12:15:49;5.38;;;1.98;;
58238;SDS011;44037;55.638;37.356;2023-07-31T12:18:21;5.45;;;1.90;;
58238;SDS011;44037;55.638;37.356;2023-07-31T12:20:49;5.40;;;2.10;;
58238;SDS011;44037;55.638;37.356;2023-07-31T12:23:23;3.67;;;1.50;;
58238;SDS011;44037;55.638;37.356;2023-07-31T12:26:00;3.33;;;1.75;;
58238;SDS011;44037;55.638;37.356;2023-07-31T12:28:28;5.30;;;1.83;;
58238;SDS011;44037;55.638;37.356;2023-07-31T12:30:56;4.25;;;1.88;;
58238;SDS011;44037;55.638;37.356;2023-07-31T12:33:29;4.15;;;1.90;;
58238;SDS011;44037;55.638;37.356;2023-07-31T12:35:58;3.17;;;1.85;;
58238;SDS011;44037;55.638;37.356;2023-07-31T12:38:28;3.33;;;2.15;;
58238;SDS011;44037;55.638;37.356;2023-07-31T12:40:55;2.13;;;1.90;;
58238;SDS011;44037;55.638;37.356;2023-07-31T12:43:23;2.40;;;1.88;;
58238;SDS011;44037;55.638;37.356;2023-07-31T12:45:50;3.38;;;1.77;;
58238;SDS011;44037;55.638;37.356;2023-07-31T12:48:17;2.22;;;1.58;;
58238;SDS011;44037;55.638;37.356;2023-07-31T12:50:45;7.15;;;1.92;;
58238;SDS011;44037;55.638;37.356;2023-07-31T12:53:12;3.50;;;2.08;;
58238;SDS011;44037;55.638;37.356;2023-07-31T12:55:40;5.03;;;2.00;;
58238;SDS011;44037;55.638;37.356;2023-07-31T12:58:07;3.17;;;1.85;;
58238;SDS011;44037;55.638;37.356;2023-07-31T13:00:34;8.05;;;2.90;;
58238;SDS011;44037;55.638;37.356;2023-07-31T13:03:02;3.80;;;2.10;;
58238;SDS011;44037;55.638;37.356;2023-07-31T13:05:29;4.88;;;2.50;;
58238;SDS011;44037;55.638;37.356;2023-07-31T13:07:57;4.88;;;2.20;;
58238;SDS011;44037;55.638;37.356;2023-07-31T13:10:24;2.65;;;1.80;;
58238;SDS011;44037;55.638;37.356;2023-07-31T13:12:53;2.88;;;2.35;;
58238;SDS011;44037;55.638;37.356;2023-07-31T13:15:20;4.63;;;2.35;;
58238;SDS011;44037;55.638;37.356;2023-07-31T13:17:48;4.00;;;2.30;;
58238;SDS011;44037;55.638;37.356;2023-07-31T13:20:15;3.25;;;2.03;;
58238;SDS011;44037;55.638;37.356;2023-07-31T13:22:42;2.63;;;1.80;;
58238;SDS011;44037;55.638;37.356;2023-07-31T13:25:09;5.60;;;1.70;;
58238;SDS011;44037;55.638;37.356;2023-07-31T13:27:36;2.35;;;1.67;;
58238;SDS011;44037;55.638;37.356;2023-07-31T13:30:06;5.45;;;1.98;;
58238;SDS011;44037;55.638;37.356;2023-07-31T13:32:34;3.40;;;2.03;;
58238;SDS011;44037;55.638;37.356;2023-07-31T13:35:04;4.50;;;2.28;;
58238;SDS011;44037;55.638;37.356;2023-07-31T13:37:32;5.63;;;2.13;;
58238;SDS011;44037;55.638;37.356;2023-07-31T13:39:59;4.35;;;2.10;;
58238;SDS011;44037;55.638;37.356;2023-07-31T13:42:27;5.20;;;2.42;;
58238;SDS011;44037;55.638;37.356;2023-07-31T13:44:56;5.88;;;2.25;;
58238;SDS011;44037;55.638;37.356;2023-07-31T13:47:24;5.10;;;2.53;;
58238;SDS011;44037;55.638;37.356;2023-07-31T13:49:51;5.65;;;2.45;;
58238;SDS011;44037;55.638;37.356;2023-07-31T13:52:19;5.72;;;2.20;;
58238;SDS011;44037;55.638;37.356;2023-07-31T13:54:46;5.28;;;2.05;;
58238;SDS011;44037;55.638;37.356;2023-07-31T13:57:13;5.95;;;2.30;;
58238;SDS011;44037;55.638;37.356;2023-07-31T13:59:40;3.22;;;2.03;;
58238;SDS011;44037;55.638;37.356;2023-07-31T14:02:07;3.60;;;2.15;;
58238;SDS011;44037;55.638;37.356;2023-07-31T14:04:36;3.72;;;2.00;;
58238;SDS011;44037;55.638;37.356;2023-07-31T14:07:04;4.25;;;2.10;;
58238;SDS011;44037;55.638;37.356;2023-07-31T14:09:31;4.07;;;1.95;;
58238;SDS011;44037;55.638;37.356;2023-07-31T14:11:58;3.22;;;2.30;;
58238;SDS011;44037;55.638;37.356;2023-07-31T14:14:25;3.63;;;1.98;;
58238;SDS011;44037;55.638;37.356;2023-07-31T14:16:52;3.28;;;2.55;;
58238;SDS011;44037;55.638;37.356;2023-07-31T14:19:19;3.00;;;2.28;;
58238;SDS011;44037;55.638;37.356;2023-07-31T14:21:48;3.80;;;2.20;;
58238;SDS011;44037;55.638;37.356;2023-07-31T14:24:15;6.00;;;2.50;;
58238;SDS011;44037;55.638;37.356;2023-07-31T14:26:42;7.97;;;3.55;;
58238;SDS011;44037;55.638;37.356;2023-07-31T14:29:10;4.90;;;2.97;;
58238;SDS011;44037;55.638;37.356;2023-07-31T14:31:37;4.43;;;2.38;;
58238;SDS011;44037;55.638;37.356;2023-07-31T14:34:04;5.18;;;2.33;;
58238;SDS011;44037;55.638;37.356;2023-07-31T14:36:31;4.72;;;2.03;;
58238;SDS011;44037;55.638;37.356;2023-07-31T14:39:00;3.88;;;2.13;;
58238;SDS011;44037;55.638;37.356;2023-07-31T14:41:27;4.25;;;2.03;;
58238;SDS011;44037;55.638;37.356;2023-07-31T14:43:54;4.63;;;1.98;;
58238;SDS011;44037;55.638;37.356;2023-07-31T14:46:21;6.00;;;2.30;;